createdAt,value
2022-11-12T00:02:08.144Z,69.02
2022-11-12T00:04:53.496Z,69.14
2022-11-12T00:07:38.804Z,68.54
2022-11-12T00:10:24.036Z,68.10
2022-11-12T00:13:09.490Z,68.82
2022-11-12T00:15:54.978Z,68.86
2022-11-12T00:18:40.753Z,68.57
2022-11-12T00:21:26.329Z,68.70
2022-11-12T00:24:11.615Z,68.83
2022-11-12T00:26:56.782Z,68.47
2022-11-12T00:29:42.334Z,68.73
2022-11-12T00:32:28.057Z,68.55
2022-11-12T00:35:14.341Z,69.52
2022-11-12T00:38:01.038Z,70.29
2022-11-12T00:40:46.807Z,69.42
2022-11-12T00:43:33.195Z,69.82
2022-11-12T00:46:18.489Z,70.57
2022-11-12T00:49:04.040Z,70.34
2022-11-12T00:51:50.004Z,70.00
2022-11-12T00:54:35.509Z,70.51
2022-11-12T00:57:20.752Z,70.42
2022-11-12T01:00:07.575Z,70.07
2022-11-12T01:02:53.243Z,70.37
2022-11-12T01:05:39.020Z,69.89
2022-11-12T01:08:25.059Z,69.91
2022-11-12T01:11:30.168Z,70.59
2022-11-12T01:14:16.018Z,70.16
2022-11-12T01:17:01.134Z,69.49
2022-11-12T01:19:46.628Z,69.78
2022-11-12T01:22:31.919Z,70.17
2022-11-12T01:25:17.495Z,69.65
2022-11-12T01:28:03.223Z,70.02
2022-11-12T01:30:48.688Z,69.03
2022-11-12T01:33:34.301Z,66.97
2022-11-12T01:36:19.833Z,68.67
2022-11-12T01:39:07.032Z,67.24
2022-11-12T01:41:52.588Z,66.91
2022-11-12T01:44:42.660Z,68.63
2022-11-12T01:47:33.203Z,68.67
2022-11-12T01:50:34.414Z,67.92
2022-11-12T01:53:23.207Z,68.56
2022-11-12T01:56:09.772Z,70.73
2022-11-12T01:59:04.506Z,69.79
2022-11-12T02:01:50.258Z,69.43
2022-11-12T02:04:38.906Z,69.45
2022-11-12T02:07:25.978Z,69.81
2022-11-12T02:10:11.706Z,69.54
2022-11-12T02:13:16.536Z,69.78
2022-11-12T02:16:06.829Z,69.09
2022-11-12T02:18:52.510Z,68.80
2022-11-12T02:21:38.493Z,69.11
2022-11-12T02:24:24.165Z,68.95
2022-11-12T02:27:11.390Z,69.06
2022-11-12T02:29:56.723Z,68.11
2022-11-12T02:32:42.478Z,68.52
2022-11-12T02:35:28.074Z,68.45
2022-11-12T02:38:13.704Z,68.74
2022-11-12T02:40:59.367Z,67.42
2022-11-12T02:43:44.861Z,66.37
2022-11-12T02:46:30.288Z,68.24
2022-11-12T02:49:15.697Z,68.46
2022-11-12T02:52:01.169Z,68.85
2022-11-12T02:54:46.894Z,68.41
2022-11-12T02:57:32.410Z,68.95
2022-11-12T03:00:18.704Z,67.94
2022-11-12T03:03:04.300Z,68.22
2022-11-12T03:06:01.373Z,68.25
2022-11-12T03:08:47.006Z,68.63
2022-11-12T03:11:32.370Z,69.07
2022-11-12T03:14:17.996Z,69.27
2022-11-12T03:17:04.180Z,69.48
2022-11-12T03:19:49.640Z,69.19
2022-11-12T03:22:35.287Z,69.42
2022-11-12T03:25:20.748Z,68.96
2022-11-12T03:28:09.558Z,69.17
2022-11-12T03:30:59.441Z,69.36
2022-11-12T03:33:45.019Z,68.39
2022-11-12T03:36:30.258Z,68.75
2022-11-12T03:39:15.739Z,69.20
2022-11-12T03:42:01.429Z,69.51
2022-11-12T03:44:47.260Z,70.01
2022-11-12T03:47:32.617Z,69.76
2022-11-12T03:50:19.987Z,69.89
2022-11-12T03:53:05.571Z,69.67
2022-11-12T03:55:51.124Z,69.87
2022-11-12T03:58:36.614Z,70.29
2022-11-12T04:01:21.950Z,69.87
2022-11-12T04:04:07.197Z,69.32
2022-11-12T04:07:11.275Z,69.77
2022-11-12T04:09:56.800Z,69.07
2022-11-12T04:13:00.776Z,68.11
2022-11-12T04:16:06.139Z,68.18
2022-11-12T04:19:12.337Z,68.02
2022-11-12T04:22:03.415Z,68.21
2022-11-12T04:25:07.336Z,68.25
2022-11-12T04:27:52.720Z,68.54
2022-11-12T04:30:38.233Z,68.09
2022-11-12T04:33:23.662Z,69.28
2022-11-12T04:36:09.157Z,69.81
2022-11-12T04:38:55.012Z,69.75
2022-11-12T04:41:58.842Z,69.46
2022-11-12T04:45:04.029Z,69.10
2022-11-12T04:47:49.496Z,69.05
2022-11-12T04:50:35.284Z,68.53
2022-11-12T04:53:21.042Z,67.94
2022-11-12T04:56:06.579Z,67.03
2022-11-12T04:58:52.249Z,66.54
2022-11-12T05:01:37.805Z,66.93
2022-11-12T05:04:23.177Z,67.54
2022-11-12T05:07:08.854Z,67.23
2022-11-12T05:09:54.318Z,66.37
2022-11-12T05:12:39.793Z,67.04
2022-11-12T05:15:27.860Z,66.71
2022-11-12T05:18:13.525Z,67.00
2022-11-12T05:21:18.918Z,66.91
2022-11-12T05:24:04.553Z,66.93
2022-11-12T05:26:50.523Z,67.21
2022-11-12T05:29:36.414Z,65.76
2022-11-12T05:32:22.361Z,65.01
2022-11-12T05:35:08.415Z,66.14
2022-11-12T05:37:54.120Z,66.98
2022-11-12T05:40:44.239Z,66.68
2022-11-12T05:43:29.975Z,66.85
2022-11-12T05:46:15.274Z,67.32
2022-11-12T05:49:00.704Z,66.90
2022-11-12T05:51:46.241Z,67.55
2022-11-12T05:54:31.882Z,67.51
2022-11-12T05:57:17.487Z,67.55
2022-11-12T06:00:03.696Z,67.26
2022-11-12T06:02:48.740Z,67.92
2022-11-12T06:05:34.216Z,67.71
2022-11-12T06:08:20.090Z,67.63
2022-11-12T06:11:06.121Z,67.71
2022-11-12T06:13:51.834Z,67.29
2022-11-12T06:16:37.413Z,67.54
2022-11-12T06:19:22.783Z,67.42
2022-11-12T06:22:08.214Z,66.85
2022-11-12T06:24:53.698Z,67.11
2022-11-12T06:27:40.099Z,67.66
2022-11-12T06:30:26.037Z,68.27
2022-11-12T06:33:11.697Z,67.78
2022-11-12T06:36:03.215Z,67.70
2022-11-12T06:38:49.033Z,67.83
2022-11-12T06:41:34.814Z,67.56
2022-11-12T06:44:22.341Z,68.61
2022-11-12T06:47:08.132Z,69.04
2022-11-12T06:49:53.897Z,68.31
2022-11-12T06:52:39.365Z,67.87
2022-11-12T06:55:25.144Z,68.17
2022-11-12T06:58:10.820Z,67.08
2022-11-12T07:00:56.652Z,67.84
2022-11-12T07:03:44.184Z,67.74
2022-11-12T07:06:29.612Z,68.03
2022-11-12T07:09:15.069Z,68.33
2022-11-12T07:12:00.532Z,68.22
2022-11-12T07:14:46.831Z,68.46
2022-11-12T07:17:32.301Z,68.43
2022-11-12T07:20:17.820Z,68.36
2022-11-12T07:23:03.553Z,68.96
2022-11-12T07:25:56.850Z,68.61
2022-11-12T07:28:42.989Z,68.59
2022-11-12T07:31:28.376Z,69.22
2022-11-12T07:34:13.793Z,68.49
2022-11-12T07:36:59.095Z,68.15
2022-11-12T07:39:44.572Z,68.71
2022-11-12T07:42:33.660Z,68.02
2022-11-12T07:45:19.304Z,67.62
2022-11-12T07:48:05.076Z,68.65
2022-11-12T07:50:50.556Z,68.74
2022-11-12T07:53:35.826Z,69.17
2022-11-12T07:56:24.238Z,68.11
2022-11-12T07:59:09.758Z,68.69
2022-11-12T08:01:55.365Z,68.62
2022-11-12T08:04:40.883Z,68.72
2022-11-12T08:07:26.677Z,68.51
2022-11-12T08:10:12.340Z,68.39
2022-11-12T08:12:57.751Z,68.66
2022-11-12T08:15:45.751Z,68.74
2022-11-12T08:18:35.170Z,69.02
2022-11-12T08:21:20.864Z,68.90
2022-11-12T08:24:06.389Z,68.54
2022-11-12T08:26:52.135Z,68.86
2022-11-12T08:29:37.657Z,68.42
2022-11-12T08:32:23.107Z,68.62
2022-11-12T08:35:08.642Z,68.77
2022-11-12T08:38:03.121Z,68.96
2022-11-12T08:40:48.880Z,68.46
2022-11-12T08:43:34.618Z,68.53
2022-11-12T08:46:20.234Z,68.18
2022-11-12T08:49:05.569Z,66.66
2022-11-12T08:51:51.836Z,66.66
2022-11-12T08:54:37.324Z,66.97
2022-11-12T08:57:22.856Z,66.85
2022-11-12T09:00:10.138Z,66.83
2022-11-12T09:02:55.625Z,66.97
2022-11-12T09:05:41.433Z,66.94
2022-11-12T09:08:27.007Z,66.96
2022-11-12T09:11:12.371Z,66.86
2022-11-12T09:13:57.841Z,66.75
2022-11-12T09:16:43.057Z,66.44
2022-11-12T09:19:28.627Z,65.79
2022-11-12T09:22:14.256Z,65.65
2022-11-12T09:24:59.787Z,65.72
2022-11-12T09:27:48.401Z,65.70
2022-11-12T09:30:35.380Z,66.18
2022-11-12T09:33:27.216Z,66.13
2022-11-12T09:36:12.642Z,65.82
2022-11-12T09:38:58.414Z,65.25
2022-11-12T09:41:44.123Z,64.81
2022-11-12T09:44:36.523Z,64.88
2022-11-12T09:47:31.973Z,64.75
2022-11-12T09:50:29.573Z,64.62
2022-11-12T09:53:25.674Z,65.29
2022-11-12T09:56:14.100Z,65.18
2022-11-12T09:58:59.899Z,65.17
2022-11-12T10:02:27.170Z,64.90
2022-11-12T10:05:23.962Z,64.16
2022-11-12T10:08:15.740Z,63.94
2022-11-12T10:12:03.849Z,63.81
2022-11-12T10:15:39.156Z,64.41
2022-11-12T10:18:39.990Z,64.79
2022-11-12T10:21:53.004Z,65.08
2022-11-12T10:24:40.295Z,65.60
2022-11-12T10:27:32.630Z,65.97
2022-11-12T10:30:21.622Z,65.53
2022-11-12T10:33:11.086Z,66.00
2022-11-12T10:36:12.085Z,66.74
2022-11-12T10:39:00.574Z,66.60
2022-11-12T10:41:46.168Z,67.08
2022-11-12T10:44:31.661Z,67.23
2022-11-12T10:47:22.719Z,65.59
2022-11-12T10:50:43.101Z,65.76
2022-11-12T10:53:31.233Z,66.44
2022-11-12T10:56:31.578Z,66.08
2022-11-12T10:59:21.466Z,65.32
2022-11-12T11:02:17.910Z,65.93
2022-11-12T11:05:25.139Z,65.60
2022-11-12T11:08:10.793Z,66.09
2022-11-12T11:11:16.664Z,66.62
2022-11-12T11:14:35.477Z,66.68
2022-11-12T11:17:20.752Z,67.08
2022-11-12T11:20:16.573Z,67.38
2022-11-12T11:23:31.188Z,66.55
2022-11-12T11:26:57.368Z,67.17
2022-11-12T11:29:54.202Z,67.54
2022-11-12T11:33:23.249Z,67.27
2022-11-12T11:36:43.152Z,67.50
2022-11-12T11:39:42.883Z,68.16
2022-11-12T11:42:46.334Z,67.47
2022-11-12T11:46:03.742Z,67.39
2022-11-12T11:49:27.888Z,67.90
2022-11-12T11:52:28.683Z,67.57
2022-11-12T11:55:24.115Z,67.80
2022-11-12T11:58:33.629Z,67.32
2022-11-12T12:01:37.252Z,67.08
2022-11-12T12:04:49.049Z,67.43
2022-11-12T12:07:41.834Z,67.60
2022-11-12T12:13:57.171Z,67.76
2022-11-12T12:17:08.776Z,68.15
2022-11-12T12:55:45.057Z,68.82
2022-11-12T12:58:33.367Z,68.59
2022-11-12T13:01:22.716Z,67.98
2022-11-12T13:04:09.672Z,68.38
2022-11-12T13:06:55.652Z,68.61
2022-11-12T13:09:41.678Z,68.84
2022-11-12T13:13:30.727Z,68.99
2022-11-12T13:16:57.753Z,69.11
2022-11-12T13:19:55.640Z,68.62
2022-11-12T13:22:41.327Z,68.35
2022-11-12T13:25:29.715Z,68.28
2022-11-12T13:28:23.003Z,68.49
2022-11-12T13:31:27.564Z,68.60
2022-11-12T13:34:25.699Z,68.19
2022-11-12T13:37:23.225Z,68.65
2022-11-12T13:40:16.215Z,69.10
2022-11-12T13:43:38.579Z,68.86
2022-11-12T13:46:34.144Z,68.48
2022-11-12T13:49:19.631Z,68.25
2022-11-12T13:52:08.402Z,68.61
2022-11-12T13:55:13.231Z,69.37
2022-11-12T13:58:01.991Z,69.52
2022-11-12T14:00:57.147Z,69.21
2022-11-12T14:03:49.342Z,69.15
2022-11-12T14:06:42.966Z,68.91
2022-11-12T14:10:00.156Z,68.68
2022-11-12T14:13:19.740Z,69.27
2022-11-12T14:16:21.361Z,69.17
2022-11-12T14:39:11.635Z,70.51
2022-11-12T14:41:58.792Z,70.70
2022-11-12T14:44:44.331Z,70.34
2022-11-12T14:47:29.636Z,71.26
2022-11-12T14:50:28.397Z,71.30
2022-11-12T14:53:24.515Z,72.24
2022-11-12T14:56:32.635Z,72.61
2022-11-12T14:59:20.865Z,72.87
2022-11-12T15:02:47.284Z,73.42
2022-11-12T15:05:37.588Z,73.46
2022-11-12T15:08:35.507Z,73.09
2022-11-12T15:11:26.522Z,73.17
2022-11-12T15:14:24.259Z,73.45
2022-11-12T15:17:29.275Z,72.99
2022-11-12T15:20:17.746Z,72.20
2022-11-12T15:23:03.767Z,72.06
2022-11-12T15:26:00.043Z,72.69
2022-11-12T15:29:10.406Z,72.66
2022-11-12T15:32:24.984Z,72.98
2022-11-12T15:35:35.067Z,72.44
2022-11-12T15:38:27.301Z,72.53
2022-11-12T15:41:30.575Z,73.25
2022-11-12T15:44:16.250Z,72.75
2022-11-12T15:47:02.918Z,72.47
2022-11-12T15:49:50.337Z,72.61
2022-11-12T15:52:35.949Z,72.60
2022-11-12T15:55:21.439Z,72.35
2022-11-12T15:58:12.062Z,72.89
2022-11-12T16:00:58.563Z,72.33
2022-11-12T16:03:43.822Z,73.31
2022-11-12T16:06:29.399Z,73.39
2022-11-12T16:09:15.073Z,73.09
2022-11-12T16:12:01.146Z,72.87
2022-11-12T16:14:47.120Z,74.14
2022-11-12T16:17:32.897Z,74.14
2022-11-12T16:20:21.426Z,73.74
2022-11-12T16:23:07.242Z,73.36
2022-11-12T16:25:52.990Z,74.12
2022-11-12T16:28:38.862Z,73.96
2022-11-12T16:31:24.734Z,74.23
2022-11-12T16:34:11.412Z,73.33
2022-11-12T16:36:57.964Z,73.36
2022-11-12T16:39:43.754Z,73.74
2022-11-12T16:42:29.250Z,74.11
2022-11-12T16:45:15.968Z,74.07
2022-11-12T16:48:05.311Z,74.10
2022-11-12T16:50:51.043Z,74.07
2022-11-12T16:53:36.833Z,75.96
2022-11-12T16:56:23.426Z,75.41
2022-11-12T16:59:18.480Z,76.02
2022-11-12T17:02:04.165Z,75.68
2022-11-12T17:04:49.906Z,75.81
2022-11-12T17:07:35.141Z,76.10
2022-11-12T17:10:24.067Z,75.84
2022-11-12T17:13:12.977Z,76.70
2022-11-12T17:15:58.838Z,76.53
2022-11-12T17:18:44.600Z,76.07
2022-11-12T17:21:30.420Z,76.07
2022-11-12T17:24:16.098Z,75.90
2022-11-12T17:27:01.666Z,76.58
2022-11-12T17:29:47.454Z,76.83
2022-11-12T17:32:33.044Z,77.78
2022-11-12T17:35:18.531Z,77.70
2022-11-12T17:38:04.245Z,77.76
2022-11-12T17:40:55.352Z,77.81
2022-11-12T17:43:41.589Z,77.91
2022-11-12T17:46:28.207Z,77.71
2022-11-12T17:49:14.759Z,77.94
2022-11-12T17:51:59.902Z,78.29
2022-11-12T17:54:45.471Z,77.88
2022-11-12T17:57:31.042Z,77.88
2022-11-12T18:00:17.011Z,77.89
2022-11-12T18:03:02.382Z,76.94
2022-11-12T18:05:57.000Z,77.30
2022-11-12T18:08:43.091Z,77.21
2022-11-12T18:11:30.697Z,76.66
2022-11-12T18:14:16.621Z,77.64
2022-11-12T18:17:02.269Z,77.73
2022-11-12T18:19:47.729Z,77.60
2022-11-12T18:22:33.089Z,76.81
2022-11-12T18:25:18.518Z,76.64
2022-11-12T18:28:06.152Z,76.97
2022-11-12T18:30:51.431Z,77.29
2022-11-12T18:33:37.758Z,77.63
2022-11-12T18:36:26.034Z,77.60
2022-11-12T18:39:11.434Z,77.33
2022-11-12T18:41:57.022Z,76.66
2022-11-12T18:44:42.650Z,76.52
2022-11-12T18:47:30.372Z,76.78
2022-11-12T18:50:16.193Z,76.62
2022-11-12T18:53:01.730Z,77.07
2022-11-12T18:55:47.353Z,77.09
2022-11-12T18:58:35.376Z,77.10
2022-11-12T19:01:23.479Z,77.97
2022-11-12T19:04:11.391Z,77.84
2022-11-12T19:06:56.949Z,78.02
2022-11-12T19:09:42.453Z,78.32
2022-11-12T19:12:28.950Z,77.60
2022-11-12T19:15:14.315Z,78.29
2022-11-12T19:18:01.526Z,78.91
2022-11-12T19:20:49.506Z,79.02
2022-11-12T19:23:35.032Z,78.89
2022-11-12T19:26:22.298Z,78.74
2022-11-12T19:29:07.710Z,78.51
2022-11-12T19:31:53.235Z,78.50
2022-11-12T19:34:38.870Z,78.42
2022-11-12T19:37:33.604Z,77.78
2022-11-12T19:40:19.889Z,76.82
2022-11-12T19:43:05.677Z,77.67
2022-11-12T19:45:51.296Z,76.78
2022-11-12T19:48:37.585Z,76.84
2022-11-12T19:51:24.516Z,76.72
2022-11-12T19:54:10.265Z,76.86
2022-11-12T19:56:56.357Z,77.82
2022-11-12T19:59:41.943Z,77.81
2022-11-12T20:02:27.098Z,77.93
2022-11-12T20:05:13.077Z,78.21
2022-11-12T20:07:58.654Z,78.02
2022-11-12T20:10:44.755Z,77.76
2022-11-12T20:13:30.831Z,78.24
2022-11-12T20:16:23.846Z,78.03
2022-11-12T20:19:10.683Z,78.46
2022-11-12T20:21:56.116Z,78.57
2022-11-12T20:24:41.671Z,78.96
2022-11-12T20:27:27.399Z,78.55
2022-11-12T20:30:13.113Z,78.71
2022-11-12T20:32:58.516Z,78.79
2022-11-12T20:35:44.442Z,78.25
2022-11-12T20:38:30.380Z,78.23
2022-11-12T20:41:22.242Z,78.50
2022-11-12T20:44:07.803Z,78.13
2022-11-12T20:46:53.703Z,77.57
2022-11-12T20:49:39.178Z,77.70
2022-11-12T20:52:24.541Z,77.59
2022-11-12T20:55:10.338Z,78.98
2022-11-12T20:57:55.312Z,79.46
2022-11-12T21:00:40.874Z,79.07
2022-11-12T21:03:26.507Z,80.22
2022-11-12T21:06:15.485Z,80.06
2022-11-12T21:09:01.522Z,79.86
2022-11-12T21:11:47.114Z,79.88
2022-11-12T21:14:32.590Z,79.25
2022-11-12T21:17:19.729Z,78.26
2022-11-12T21:20:05.808Z,78.65
2022-11-12T21:22:51.279Z,78.64
2022-11-12T21:25:38.461Z,78.66
2022-11-12T21:28:23.965Z,78.45
2022-11-12T21:31:12.137Z,78.10
2022-11-12T21:34:00.694Z,78.55
2022-11-12T21:36:46.390Z,78.78
2022-11-12T21:39:31.916Z,78.55
2022-11-12T21:42:17.592Z,78.16
2022-11-12T21:45:03.470Z,78.46
2022-11-12T21:47:49.166Z,78.30
2022-11-12T21:50:34.398Z,78.52
2022-11-12T21:53:19.861Z,78.40
2022-11-12T21:56:11.334Z,78.26
2022-11-12T21:59:01.409Z,77.75
2022-11-12T22:01:47.051Z,78.12
2022-11-12T22:04:32.633Z,77.62
2022-11-12T22:07:18.631Z,77.44
2022-11-12T22:10:04.154Z,77.47
2022-11-12T22:13:19.868Z,77.67
2022-11-12T22:15:55.380Z,77.24
2022-11-12T22:18:41.655Z,77.43
2022-11-12T22:21:39.510Z,77.63
2022-11-12T22:24:25.561Z,77.41
2022-11-12T22:27:11.428Z,77.62
2022-11-12T22:29:56.948Z,77.64
2022-11-12T22:32:42.601Z,77.10
2022-11-12T22:35:28.096Z,77.39
2022-11-12T22:38:13.802Z,77.00
2022-11-12T22:41:07.516Z,76.11
2022-11-12T22:43:54.974Z,75.98
2022-11-12T22:46:40.461Z,76.99
2022-11-12T22:49:26.129Z,76.60
2022-11-12T22:52:11.493Z,75.76
2022-11-12T22:54:56.951Z,75.58
2022-11-12T22:57:42.485Z,75.95
2022-11-12T23:00:30.580Z,75.44
2022-11-12T23:03:16.044Z,76.39
2022-11-12T23:06:04.719Z,76.13
2022-11-12T23:08:50.438Z,76.01
2022-11-12T23:11:37.789Z,76.07
2022-11-12T23:14:23.721Z,76.33
2022-11-12T23:17:09.620Z,76.08
2022-11-12T23:19:55.306Z,77.35
2022-11-12T23:22:40.765Z,77.16
2022-11-12T23:25:26.475Z,77.58
2022-11-12T23:28:11.982Z,77.45
2022-11-12T23:30:58.097Z,77.08
2022-11-12T23:33:48.283Z,76.46
2022-11-12T23:36:33.947Z,77.72
2022-11-12T23:39:19.300Z,77.09
2022-11-12T23:42:04.702Z,77.05
2022-11-12T23:44:50.101Z,76.29
2022-11-12T23:47:35.634Z,77.47
2022-11-12T23:50:21.222Z,76.57
2022-11-12T23:53:06.688Z,75.49
2022-11-12T23:55:52.414Z,75.38
2022-11-12T23:58:39.424Z,75.32
